CheckWX is a tool to help pilots better visualize weather data.  It is not intended as a substitute for an official pre-flight weather briefing.

06:43:27 UTC

EFKI TAF
Kajaani Airport
Kajaani, Finland
TAF EFKI 160525Z 1606/1615 27008KT CAVOK

Jun-16@
06:00 UTC

Jun-16 @ 06:00 UTC

Jun-16@
15:00 UTC

Jun-16 @ 15:00 UTC

TAF EFKI 160525Z 1606/1615 27008KT CAVOK
Wind
  • 270° at 8 KTS
Conditions
No significant weather
Cloud Levels
  • No significant clouds